createdAt,value
2023-01-07T00:00:01.954Z,50.31
2023-01-07T00:02:39.280Z,50.86
2023-01-07T00:05:06.817Z,51.28
2023-01-07T00:07:33.993Z,51.32
2023-01-07T00:10:01.160Z,51.89
2023-01-07T00:12:28.627Z,51.19
2023-01-07T00:14:55.814Z,51.37
2023-01-07T00:17:23.036Z,51.76
2023-01-07T00:19:50.544Z,51.73
2023-01-07T00:22:17.737Z,50.86
2023-01-07T00:24:44.957Z,51.15
2023-01-07T00:27:12.392Z,51.61
2023-01-07T00:29:39.586Z,52.01
2023-01-07T00:32:06.810Z,51.95
2023-01-07T00:34:35.150Z,52.60
2023-01-07T00:37:37.847Z,52.88
2023-01-07T00:40:05.507Z,53.07
2023-01-07T00:42:51.367Z,53.26
2023-01-07T00:45:18.795Z,53.39
2023-01-07T00:47:46.029Z,54.11
2023-01-07T00:50:13.273Z,53.34
2023-01-07T00:52:40.810Z,53.08
2023-01-07T00:55:08.424Z,53.00
2023-01-07T00:57:35.829Z,53.08
2023-01-07T01:00:03.625Z,52.98
2023-01-07T01:02:31.448Z,53.10
2023-01-07T01:04:58.657Z,53.05
2023-01-07T01:07:26.215Z,53.17
2023-01-07T01:09:53.366Z,53.10
2023-01-07T01:12:20.602Z,53.13
2023-01-07T01:14:48.462Z,52.92
2023-01-07T01:17:15.611Z,52.96
2023-01-07T01:19:43.168Z,52.82
2023-01-07T01:22:10.679Z,52.92
2023-01-07T01:24:37.800Z,53.05
2023-01-07T01:27:05.068Z,52.97
2023-01-07T01:29:32.498Z,52.84
2023-01-07T01:32:01.009Z,52.24
2023-01-07T01:34:30.749Z,51.83
2023-01-07T01:36:58.213Z,51.88
2023-01-07T01:39:25.739Z,51.64
2023-01-07T01:41:53.023Z,51.27
2023-01-07T01:44:38.753Z,51.16
2023-01-07T01:47:19.037Z,51.10
2023-01-07T01:49:48.384Z,50.74
2023-01-07T01:52:16.441Z,50.51
2023-01-07T01:54:45.190Z,50.41
2023-01-07T01:57:12.951Z,50.67
2023-01-07T01:59:41.164Z,50.64
2023-01-07T02:02:09.068Z,50.33
2023-01-07T02:04:36.691Z,50.47
2023-01-07T02:07:05.190Z,50.29
2023-01-07T02:09:33.020Z,49.84
2023-01-07T02:12:06.685Z,49.98
2023-01-07T02:14:41.857Z,49.92
2023-01-07T02:17:09.238Z,50.40
2023-01-07T02:19:39.548Z,51.30
2023-01-07T02:22:14.589Z,51.66
2023-01-07T02:24:48.553Z,50.82
2023-01-07T02:27:20.839Z,50.94
2023-01-07T02:29:48.653Z,50.42
2023-01-07T02:32:22.087Z,50.44
2023-01-07T02:35:03.445Z,49.83
2023-01-07T02:37:44.483Z,49.96
2023-01-07T02:40:20.554Z,49.86
2023-01-07T02:42:51.402Z,50.14
2023-01-07T02:45:29.957Z,50.33
2023-01-07T02:48:01.747Z,50.43
2023-01-07T02:50:29.443Z,50.77
2023-01-07T02:52:56.735Z,51.18
2023-01-07T02:55:29.903Z,50.61
2023-01-07T02:58:04.275Z,50.25
2023-01-07T03:00:47.025Z,49.82
2023-01-07T03:03:33.056Z,49.76
2023-01-07T03:06:00.589Z,49.87
2023-01-07T03:08:32.588Z,49.80
2023-01-07T03:11:00.797Z,49.62
2023-01-07T03:13:31.618Z,49.74
2023-01-07T03:16:09.246Z,49.58
2023-01-07T03:18:38.623Z,49.29
2023-01-07T03:21:06.932Z,49.83
2023-01-07T03:23:34.177Z,50.22
2023-01-07T03:26:02.488Z,50.09
2023-01-07T03:28:30.276Z,50.08
2023-01-07T03:30:57.763Z,50.35
2023-01-07T03:33:41.838Z,50.49
2023-01-07T03:36:09.312Z,50.70
2023-01-07T03:38:36.728Z,50.44
2023-01-07T03:41:04.272Z,51.08
2023-01-07T03:43:31.502Z,50.77
2023-01-07T03:45:59.443Z,50.34
2023-01-07T03:48:27.532Z,51.50
2023-01-07T03:50:55.750Z,51.30
2023-01-07T03:53:23.181Z,51.77
2023-01-07T03:55:50.795Z,52.30
2023-01-07T03:58:18.068Z,51.01
2023-01-07T04:00:45.690Z,51.20
2023-01-07T04:03:14.117Z,51.40
2023-01-07T04:05:41.491Z,51.51
2023-01-07T04:08:09.136Z,51.24
2023-01-07T04:10:36.976Z,50.96
2023-01-07T04:13:04.283Z,51.05
2023-01-07T04:15:31.787Z,50.74
2023-01-07T04:17:59.516Z,50.58
2023-01-07T04:20:27.783Z,50.04
2023-01-07T04:22:54.929Z,50.14
2023-01-07T04:25:23.054Z,51.18
2023-01-07T04:27:50.677Z,53.11
2023-01-07T04:30:17.889Z,52.27
2023-01-07T04:32:45.475Z,51.85
2023-01-07T04:35:12.833Z,51.71
2023-01-07T04:37:40.073Z,51.72
2023-01-07T04:40:08.021Z,51.63
2023-01-07T04:42:35.460Z,51.63
2023-01-07T04:45:03.239Z,52.10
2023-01-07T04:47:30.997Z,52.15
2023-01-07T04:49:58.588Z,52.86
2023-01-07T04:52:26.969Z,52.15
2023-01-07T04:54:54.503Z,52.00
2023-01-07T04:57:21.670Z,51.42
2023-01-07T04:59:49.068Z,51.87
2023-01-07T05:02:16.584Z,51.56
2023-01-07T05:04:44.680Z,50.26
2023-01-07T05:07:12.200Z,51.45
2023-01-07T05:09:41.076Z,51.60
2023-01-07T05:12:08.311Z,52.48
2023-01-07T05:14:36.519Z,52.80
2023-01-07T05:17:04.076Z,51.38
2023-01-07T05:19:31.617Z,51.20
2023-01-07T05:22:00.625Z,50.97
2023-01-07T05:24:28.613Z,50.91
2023-01-07T05:26:56.124Z,50.89
2023-01-07T05:29:23.322Z,51.17
2023-01-07T05:31:50.803Z,50.83
2023-01-07T05:34:18.283Z,52.11
2023-01-07T05:36:45.671Z,51.80
2023-01-07T05:39:14.316Z,51.13
2023-01-07T05:41:42.508Z,50.96
2023-01-07T05:44:09.751Z,51.33
2023-01-07T05:46:37.231Z,50.98
2023-01-07T05:49:04.549Z,50.35
2023-01-07T05:51:31.879Z,49.84
2023-01-07T05:53:59.375Z,50.54
2023-01-07T05:56:26.527Z,51.11
2023-01-07T05:58:53.702Z,50.94
2023-01-07T06:01:21.461Z,52.71
2023-01-07T06:03:49.029Z,50.65
2023-01-07T06:06:16.269Z,49.54
2023-01-07T06:08:43.539Z,50.04
2023-01-07T06:11:10.987Z,50.15
2023-01-07T06:13:38.239Z,49.57
2023-01-07T06:16:06.621Z,50.19
2023-01-07T06:18:34.474Z,49.71
2023-01-07T06:21:01.762Z,49.71
2023-01-07T06:23:29.061Z,50.37
2023-01-07T06:25:56.669Z,51.05
2023-01-07T06:28:23.920Z,53.05
2023-01-07T06:30:51.097Z,53.15
2023-01-07T06:33:18.652Z,50.12
2023-01-07T06:35:45.919Z,50.88
2023-01-07T06:38:13.149Z,51.29
2023-01-07T06:40:40.581Z,50.59
2023-01-07T06:43:07.713Z,49.87
2023-01-07T06:45:34.956Z,49.51
2023-01-07T06:48:02.815Z,49.90
2023-01-07T06:50:29.989Z,49.59
2023-01-07T06:52:57.177Z,49.36
2023-01-07T06:55:24.606Z,49.61
2023-01-07T06:57:51.824Z,48.26
2023-01-07T07:00:19.038Z,46.61
2023-01-07T07:02:46.960Z,44.76
2023-01-07T07:05:14.184Z,43.39
2023-01-07T07:07:41.434Z,40.88
2023-01-07T07:10:08.954Z,39.28
2023-01-07T07:12:36.264Z,38.08
2023-01-07T07:15:04.509Z,36.78
2023-01-07T07:17:31.987Z,37.05
2023-01-07T07:19:59.200Z,38.08
2023-01-07T07:22:26.453Z,37.45
2023-01-07T07:24:53.914Z,38.17
2023-01-07T07:27:21.052Z,39.30
2023-01-07T07:29:48.203Z,38.59
2023-01-07T07:32:15.658Z,38.34
2023-01-07T07:34:42.839Z,39.07
2023-01-07T07:37:09.982Z,39.53
2023-01-07T07:39:37.627Z,39.25
2023-01-07T07:42:05.106Z,38.16
2023-01-07T07:44:32.438Z,37.35
2023-01-07T07:46:59.859Z,35.47
2023-01-07T07:49:27.144Z,34.73
2023-01-07T07:51:54.458Z,34.64
2023-01-07T07:54:23.802Z,33.53
2023-01-07T07:56:51.206Z,34.20
2023-01-07T07:59:18.404Z,33.95
2023-01-07T08:01:45.951Z,33.18
2023-01-07T08:04:13.575Z,33.24
2023-01-07T08:06:40.795Z,33.17
2023-01-07T08:09:07.981Z,33.66
2023-01-07T08:11:35.529Z,34.81
2023-01-07T08:14:02.856Z,34.83
2023-01-07T08:16:30.170Z,35.12
2023-01-07T08:18:57.639Z,34.95
2023-01-07T08:21:24.880Z,35.23
2023-01-07T08:23:52.146Z,36.23
2023-01-07T08:26:19.664Z,36.99
2023-01-07T08:28:47.011Z,37.57
2023-01-07T08:31:14.318Z,38.19
2023-01-07T08:33:41.798Z,38.10
2023-01-07T08:36:22.099Z,37.39
2023-01-07T08:38:51.664Z,37.11
2023-01-07T08:41:19.287Z,37.76
2023-01-07T08:43:46.896Z,38.37
2023-01-07T08:46:14.430Z,39.08
2023-01-07T08:48:41.620Z,38.56
2023-01-07T08:51:08.815Z,37.81
2023-01-07T08:53:36.327Z,37.29
2023-01-07T08:56:03.619Z,36.75
2023-01-07T08:58:30.880Z,38.09
2023-01-07T09:01:05.771Z,38.17
2023-01-07T09:03:33.620Z,38.61
2023-01-07T09:06:01.199Z,38.92
2023-01-07T09:08:28.360Z,39.20
2023-01-07T09:10:56.158Z,40.46
2023-01-07T09:13:23.613Z,38.90
2023-01-07T09:15:50.847Z,35.54
2023-01-07T09:18:18.040Z,33.28
2023-01-07T09:20:45.553Z,33.47
2023-01-07T09:23:12.738Z,30.95
2023-01-07T09:25:40.071Z,30.18
2023-01-07T09:28:07.655Z,31.69
2023-01-07T09:30:34.863Z,31.05
2023-01-07T09:33:02.092Z,28.56
2023-01-07T09:35:29.551Z,27.31
2023-01-07T09:37:56.763Z,26.94
2023-01-07T09:40:23.916Z,27.88
2023-01-07T09:43:12.709Z,28.26
2023-01-07T09:45:44.609Z,29.53
2023-01-07T09:48:24.215Z,31.09
2023-01-07T09:50:53.221Z,31.55
2023-01-07T09:53:28.188Z,31.29
2023-01-07T09:56:10.504Z,29.79
2023-01-07T09:58:41.396Z,27.60
2023-01-07T10:01:27.118Z,27.55
2023-01-07T10:04:14.952Z,28.46
2023-01-07T10:06:49.106Z,27.99
2023-01-07T10:09:26.262Z,28.01
2023-01-07T10:11:57.662Z,27.41
2023-01-07T10:14:38.304Z,25.59
2023-01-07T10:17:16.246Z,25.13
2023-01-07T10:19:43.716Z,25.01
2023-01-07T10:22:21.605Z,23.72
2023-01-07T10:24:51.006Z,22.39
2023-01-07T10:27:18.785Z,20.88
2023-01-07T10:29:46.930Z,20.22
2023-01-07T10:32:17.780Z,19.97
2023-01-07T10:34:46.268Z,19.46
2023-01-07T10:37:32.172Z,20.11
2023-01-07T10:40:18.316Z,19.81
2023-01-07T10:42:54.580Z,18.96
2023-01-07T10:45:30.799Z,18.04
2023-01-07T10:48:01.074Z,17.94
2023-01-07T10:50:31.399Z,18.30
2023-01-07T10:53:10.818Z,19.93
2023-01-07T10:55:49.918Z,21.13
2023-01-07T10:58:17.067Z,22.53
2023-01-07T11:00:46.246Z,22.05
2023-01-07T11:03:18.869Z,21.92
2023-01-07T11:05:47.087Z,22.29
2023-01-07T11:08:25.171Z,22.47
2023-01-07T11:10:52.733Z,22.65
2023-01-07T11:13:21.686Z,22.72
2023-01-07T11:15:50.068Z,23.61
2023-01-07T11:18:21.517Z,24.77
2023-01-07T11:20:52.831Z,24.99
2023-01-07T11:23:32.575Z,26.21
2023-01-07T11:26:06.099Z,25.82
2023-01-07T11:28:33.663Z,27.05
2023-01-07T11:31:01.109Z,27.03
2023-01-07T11:34:01.815Z,27.85
2023-01-07T11:36:38.458Z,29.08
2023-01-07T11:39:09.257Z,30.11
2023-01-07T11:41:36.691Z,31.48
2023-01-07T11:44:03.946Z,33.21
2023-01-07T11:46:31.670Z,35.32
2023-01-07T11:49:01.019Z,36.33
2023-01-07T11:51:28.532Z,38.73
2023-01-07T11:53:56.751Z,39.64
2023-01-07T11:56:25.625Z,39.09
2023-01-07T11:59:15.472Z,42.66
2023-01-07T12:01:43.442Z,41.77
2023-01-07T12:04:20.330Z,41.97
2023-01-07T12:06:48.593Z,41.11
2023-01-07T12:09:18.790Z,42.11
2023-01-07T12:11:45.910Z,41.08
2023-01-07T12:14:26.687Z,41.66
2023-01-07T12:16:54.267Z,42.22
2023-01-07T12:19:22.571Z,41.90
2023-01-07T12:21:52.752Z,42.80
2023-01-07T12:24:23.103Z,42.74
2023-01-07T12:26:53.299Z,43.15
2023-01-07T12:29:32.036Z,43.25
2023-01-07T12:31:59.306Z,44.13
2023-01-07T12:34:45.009Z,44.26
2023-01-07T12:37:28.667Z,44.63
2023-01-07T12:39:57.884Z,44.89
2023-01-07T12:42:26.669Z,44.73
2023-01-07T12:44:58.074Z,46.72
2023-01-07T12:47:31.120Z,44.22
2023-01-07T12:50:13.742Z,45.80
2023-01-07T12:52:41.266Z,45.74
2023-01-07T12:55:21.001Z,44.31
2023-01-07T12:58:11.688Z,43.86
2023-01-07T13:00:51.610Z,44.23
2023-01-07T13:03:31.507Z,45.70
2023-01-07T13:06:00.252Z,46.85
2023-01-07T13:08:33.949Z,45.77
2023-01-07T13:11:20.484Z,45.30
2023-01-07T13:13:49.573Z,45.09
2023-01-07T13:16:16.855Z,44.73
2023-01-07T13:18:44.205Z,45.89
2023-01-07T13:21:12.761Z,47.76
2023-01-07T13:23:58.769Z,45.52
2023-01-07T13:26:35.428Z,44.39
2023-01-07T13:29:08.781Z,44.93
2023-01-07T13:31:36.293Z,45.07
2023-01-07T13:34:03.513Z,44.53
2023-01-07T13:36:30.699Z,45.80
2023-01-07T13:39:07.440Z,45.48
2023-01-07T13:41:40.597Z,46.86
2023-01-07T13:44:26.941Z,45.50
2023-01-07T13:46:54.143Z,46.14
2023-01-07T13:49:29.881Z,45.18
2023-01-07T13:51:57.452Z,45.38
2023-01-07T13:54:43.766Z,47.90
2023-01-07T13:57:26.287Z,48.31
2023-01-07T13:59:54.078Z,48.30
2023-01-07T14:02:25.233Z,48.63
2023-01-07T14:05:06.222Z,50.13
2023-01-07T14:07:42.299Z,49.06
2023-01-07T14:10:17.582Z,48.32
2023-01-07T14:13:05.147Z,48.44
2023-01-07T14:15:44.637Z,49.90
2023-01-07T14:18:21.047Z,51.63
2023-01-07T14:20:49.067Z,51.72
2023-01-07T14:23:30.187Z,52.80
2023-01-07T14:25:57.623Z,51.28
2023-01-07T14:28:43.719Z,50.17
2023-01-07T14:31:23.874Z,53.40
2023-01-07T14:33:52.260Z,51.41
2023-01-07T14:36:19.832Z,50.52
2023-01-07T14:38:54.462Z,51.32
2023-01-07T14:41:23.734Z,50.90
2023-01-07T14:44:04.723Z,50.45
2023-01-07T14:46:38.327Z,48.39
2023-01-07T14:49:05.697Z,48.76
2023-01-07T14:51:37.879Z,50.38
2023-01-07T14:54:24.085Z,50.01
2023-01-07T14:56:54.692Z,53.13
2023-01-07T14:59:21.804Z,51.24
2023-01-07T15:01:51.732Z,54.62
2023-01-07T15:04:19.218Z,54.39
2023-01-07T15:06:46.420Z,55.73
2023-01-07T15:09:32.753Z,56.93
2023-01-07T15:12:19.959Z,55.26
2023-01-07T15:15:07.151Z,55.26
2023-01-07T15:17:34.653Z,53.24
2023-01-07T15:20:03.933Z,52.68
2023-01-07T15:22:34.155Z,52.77
2023-01-07T15:25:07.854Z,52.60
2023-01-07T15:27:41.276Z,53.36
2023-01-07T15:30:24.835Z,53.89
2023-01-07T15:33:01.122Z,53.43
2023-01-07T15:35:37.708Z,54.82
2023-01-07T15:38:05.324Z,57.90
2023-01-07T15:40:32.828Z,57.98
2023-01-07T15:43:00.370Z,55.48
2023-01-07T15:45:28.550Z,56.94
2023-01-07T15:48:11.128Z,55.65
2023-01-07T15:50:40.875Z,60.34
2023-01-07T15:53:11.519Z,57.03
2023-01-07T15:55:39.296Z,55.34
2023-01-07T15:58:07.163Z,56.35
2023-01-07T16:00:35.452Z,56.38
2023-01-07T16:03:03.206Z,54.84
2023-01-07T16:05:30.661Z,55.39
2023-01-07T16:08:01.362Z,55.89
2023-01-07T16:10:33.503Z,57.47
2023-01-07T16:13:01.506Z,59.12
2023-01-07T16:15:30.171Z,62.18
2023-01-07T16:17:58.438Z,59.70
2023-01-07T16:20:29.771Z,62.20
2023-01-07T16:23:09.577Z,62.41
2023-01-07T16:25:41.474Z,60.96
2023-01-07T16:28:10.593Z,62.51
2023-01-07T16:30:38.296Z,63.75
2023-01-07T16:33:06.082Z,64.04
2023-01-07T16:35:34.073Z,60.32
2023-01-07T16:38:01.787Z,60.40
2023-01-07T16:40:36.285Z,59.43
2023-01-07T16:43:04.327Z,60.11
2023-01-07T16:45:32.884Z,59.68
2023-01-07T16:48:14.040Z,62.03
2023-01-07T16:50:42.165Z,59.93
2023-01-07T16:53:27.535Z,62.39
2023-01-07T16:56:09.457Z,63.24
2023-01-07T16:58:55.646Z,61.32
2023-01-07T17:01:33.747Z,61.48
2023-01-07T17:04:01.754Z,62.58
2023-01-07T17:06:30.114Z,61.91
2023-01-07T17:08:57.430Z,62.92
2023-01-07T17:11:29.075Z,61.73
2023-01-07T17:13:56.567Z,66.87
2023-01-07T17:16:25.594Z,66.89
2023-01-07T17:18:53.072Z,67.34
2023-01-07T17:21:40.105Z,66.32
2023-01-07T17:24:26.011Z,64.82
2023-01-07T17:26:53.489Z,65.35
2023-01-07T17:29:20.812Z,69.36
2023-01-07T17:31:48.188Z,70.07
2023-01-07T17:34:16.408Z,68.58
2023-01-07T17:36:43.761Z,68.26
2023-01-07T17:39:11.463Z,71.46
2023-01-07T17:41:57.309Z,70.92
2023-01-07T17:44:24.612Z,69.14
2023-01-07T17:46:52.143Z,69.40
2023-01-07T17:49:20.470Z,68.41
2023-01-07T17:51:47.963Z,72.50
2023-01-07T17:54:22.561Z,68.97
2023-01-07T17:56:49.802Z,71.09
2023-01-07T17:59:21.065Z,69.46
2023-01-07T18:01:48.483Z,68.78
2023-01-07T18:04:17.635Z,68.55
2023-01-07T18:06:45.174Z,70.05
2023-01-07T18:09:13.702Z,69.77
2023-01-07T18:12:00.547Z,69.87
2023-01-07T18:14:27.765Z,68.86
2023-01-07T18:16:55.353Z,67.42
2023-01-07T18:19:22.656Z,66.69
2023-01-07T18:21:49.841Z,66.93
2023-01-07T18:24:18.612Z,67.89
2023-01-07T18:26:46.059Z,68.31
2023-01-07T18:29:14.015Z,68.95
2023-01-07T18:31:42.585Z,67.96
2023-01-07T18:34:10.602Z,67.42
2023-01-07T18:36:37.876Z,66.82
2023-01-07T18:39:05.593Z,66.42
2023-01-07T18:41:33.480Z,68.41
2023-01-07T18:44:00.717Z,69.17
2023-01-07T18:46:28.205Z,70.09
2023-01-07T18:48:55.579Z,67.66
2023-01-07T18:51:22.870Z,67.60
2023-01-07T18:53:50.599Z,66.97
2023-01-07T18:56:17.815Z,67.30
2023-01-07T18:58:45.260Z,70.07
2023-01-07T19:01:12.957Z,69.92
2023-01-07T19:03:40.341Z,70.82
2023-01-07T19:06:08.528Z,70.86
2023-01-07T19:08:36.103Z,72.98
2023-01-07T19:11:07.424Z,69.31
2023-01-07T19:13:34.701Z,69.26
2023-01-07T19:16:05.165Z,70.65
2023-01-07T19:18:32.605Z,70.14
2023-01-07T19:21:03.561Z,72.89
2023-01-07T19:23:31.020Z,70.84
2023-01-07T19:26:02.418Z,70.11
2023-01-07T19:28:29.835Z,69.88
2023-01-07T19:30:57.402Z,70.25
2023-01-07T19:33:24.821Z,68.88
2023-01-07T19:36:04.926Z,69.77
2023-01-07T19:38:32.704Z,68.95
2023-01-07T19:40:59.875Z,69.15
2023-01-07T19:43:27.176Z,69.77
2023-01-07T19:45:55.359Z,69.42
2023-01-07T19:48:23.111Z,69.81
2023-01-07T19:50:57.292Z,73.37
2023-01-07T19:53:25.030Z,70.15
2023-01-07T19:55:52.609Z,70.77
2023-01-07T19:58:22.678Z,71.95
2023-01-07T20:00:50.709Z,72.36
2023-01-07T20:03:18.174Z,71.17
2023-01-07T20:05:45.372Z,70.33
2023-01-07T20:08:12.659Z,72.87
2023-01-07T20:10:40.141Z,69.80
2023-01-07T20:13:07.532Z,71.39
2023-01-07T20:15:34.818Z,69.63
2023-01-07T20:18:02.325Z,69.30
2023-01-07T20:20:29.997Z,72.00
2023-01-07T20:22:57.237Z,72.71
2023-01-07T20:25:24.711Z,73.34
2023-01-07T20:27:51.866Z,73.34
2023-01-07T20:30:19.069Z,71.11
2023-01-07T20:32:46.606Z,70.09
2023-01-07T20:35:13.781Z,69.95
2023-01-07T20:37:41.676Z,68.52
2023-01-07T20:40:09.399Z,68.98
2023-01-07T20:42:36.569Z,70.86
2023-01-07T20:45:03.895Z,71.58
2023-01-07T20:47:31.338Z,73.90
2023-01-07T20:49:58.673Z,71.09
2023-01-07T20:52:25.829Z,71.42
2023-01-07T20:54:53.347Z,70.68
2023-01-07T20:57:20.605Z,70.55
2023-01-07T20:59:47.795Z,71.29
2023-01-07T21:02:16.888Z,70.39
2023-01-07T21:04:44.245Z,70.35
2023-01-07T21:07:11.464Z,69.62
2023-01-07T21:09:39.075Z,69.32
2023-01-07T21:12:06.370Z,72.67
2023-01-07T21:14:33.617Z,69.16
2023-01-07T21:17:01.087Z,68.02
2023-01-07T21:19:28.236Z,67.13
2023-01-07T21:21:55.542Z,66.66
2023-01-07T21:24:23.041Z,67.23
2023-01-07T21:26:50.447Z,70.38
2023-01-07T21:29:17.740Z,65.72
2023-01-07T21:31:46.103Z,65.01
2023-01-07T21:34:13.584Z,64.94
2023-01-07T21:36:40.867Z,65.17
2023-01-07T21:39:08.648Z,65.85
2023-01-07T21:41:35.913Z,66.60
2023-01-07T21:44:03.210Z,65.63
2023-01-07T21:46:30.746Z,66.63
2023-01-07T21:48:58.081Z,67.79
2023-01-07T21:51:25.900Z,66.89
2023-01-07T21:53:55.867Z,65.68
2023-01-07T21:56:23.766Z,65.95
2023-01-07T21:58:51.049Z,66.13
2023-01-07T22:01:18.891Z,65.29
2023-01-07T22:03:47.225Z,64.43
2023-01-07T22:06:16.757Z,65.52
2023-01-07T22:08:43.896Z,65.38
2023-01-07T22:11:17.411Z,64.06
2023-01-07T22:13:44.685Z,65.95
2023-01-07T22:16:12.242Z,66.77
2023-01-07T22:18:41.002Z,64.81
2023-01-07T22:21:08.172Z,67.95
2023-01-07T22:23:37.376Z,66.46
2023-01-07T22:26:05.476Z,66.32
2023-01-07T22:28:33.688Z,66.30
2023-01-07T22:31:02.238Z,68.63
2023-01-07T22:33:29.537Z,67.60
2023-01-07T22:35:56.722Z,69.69
2023-01-07T22:38:24.276Z,67.33
2023-01-07T22:40:51.468Z,65.70
2023-01-07T22:43:18.956Z,68.23
2023-01-07T22:45:56.885Z,71.65
2023-01-07T22:48:25.021Z,67.51
2023-01-07T22:50:53.049Z,71.71
2023-01-07T22:53:21.116Z,71.24
2023-01-07T22:55:49.266Z,67.22
2023-01-07T22:58:16.976Z,66.70
2023-01-07T23:00:53.031Z,67.34
2023-01-07T23:03:21.326Z,66.44
2023-01-07T23:05:48.881Z,66.62
2023-01-07T23:08:16.256Z,66.41
2023-01-07T23:10:43.803Z,65.01
2023-01-07T23:13:11.127Z,64.92
2023-01-07T23:15:38.721Z,65.93
2023-01-07T23:18:06.862Z,68.14
2023-01-07T23:20:34.535Z,66.68
2023-01-07T23:23:01.879Z,63.67
2023-01-07T23:25:29.757Z,67.92
2023-01-07T23:27:56.979Z,68.91
2023-01-07T23:30:24.121Z,65.05
2023-01-07T23:32:51.642Z,65.38
2023-01-07T23:35:18.935Z,66.55
2023-01-07T23:37:46.128Z,67.58
2023-01-07T23:40:13.611Z,66.26
2023-01-07T23:42:40.748Z,69.37
2023-01-07T23:45:08.189Z,66.90
2023-01-07T23:47:35.722Z,68.99
2023-01-07T23:50:02.985Z,69.34
2023-01-07T23:52:30.161Z,67.29
2023-01-07T23:54:57.626Z,65.91
2023-01-07T23:57:25.001Z,66.40
2023-01-07T23:59:52.165Z,65.25
